:

Weather search by city/station or by Location Indicator (LI)

Please do one of the following:
a) Search the weather station by station, city or country name and click Search button
b) Enter the four-character Location Indicator (i.e. EFHK = Helsinki) and click Submit button

a) Search the station:    Help

b) Location Indicator:  

The ICAO Location Indicator code is explained here.

METAR = EFHK 261020Z 07006G17KT 050V110 9999 FEW030 BKN055 20/13 Q1006 NOSIG

STATIONEFHK
NAMEHelsinki/Vantaa Arpt, --, FI
OBSERVEDWed Jul 26 13:20 (26.07.2017 10:20 UTC), 18 min ago
TEMPERATURE20.0°C ( 68°F)
WINDCHILL19.6 °C (67 °F)
WINDENE (70 degrees) at 7 MPH (6 knots; 3.1 m/s) gusting to 20 MPH (17 knots; 8.7 m/s)
HUMIDITY64%
PRESSURE1005.8 hPa
Forecast